createdAt,value
2022-08-07T00:01:43.765Z,10.69
2022-08-07T00:04:09.500Z,10.69
2022-08-07T00:06:40.901Z,10.67
2022-08-07T00:09:16.228Z,10.68
2022-08-07T00:11:54.242Z,10.69
2022-08-07T00:14:25.339Z,10.70
2022-08-07T00:16:58.832Z,10.72
2022-08-07T00:19:34.296Z,10.73
2022-08-07T00:22:12.884Z,10.76
2022-08-07T00:24:52.592Z,10.76
2022-08-07T00:27:19.591Z,10.73
2022-08-07T00:29:50.247Z,10.72
2022-08-07T00:32:18.945Z,10.72
2022-08-07T00:34:55.404Z,10.73
2022-08-07T00:37:22.670Z,10.74
2022-08-07T00:39:54.239Z,10.76
2022-08-07T00:42:29.102Z,10.83
2022-08-07T00:44:56.356Z,10.79
2022-08-07T00:48:08.104Z,10.75
2022-08-07T00:50:19.215Z,10.68
2022-08-07T00:52:57.551Z,10.61
2022-08-07T00:55:25.609Z,10.59
2022-08-07T00:58:12.587Z,10.58
2022-08-07T01:00:54.048Z,10.52
2022-08-07T01:03:54.696Z,10.50
2022-08-07T01:06:09.496Z,10.47
2022-08-07T01:08:43.116Z,10.43
2022-08-07T01:12:04.444Z,10.42
2022-08-07T01:13:58.085Z,10.40
2022-08-07T01:16:30.290Z,10.38
2022-08-07T01:18:59.883Z,10.38
2022-08-07T01:21:28.447Z,10.36
2022-08-07T01:23:57.982Z,10.37
2022-08-07T01:26:26.141Z,10.38
2022-08-07T01:28:55.122Z,10.39
2022-08-07T01:31:41.678Z,10.40
2022-08-07T01:34:14.338Z,10.40
2022-08-07T01:36:44.094Z,10.38
2022-08-07T01:39:18.602Z,10.37
2022-08-07T01:42:36.818Z,10.35
2022-08-07T01:44:47.974Z,10.34
2022-08-07T01:48:16.835Z,10.32
2022-08-07T01:50:04.987Z,10.31
2022-08-07T01:52:33.365Z,10.29
2022-08-07T01:55:01.036Z,10.29
2022-08-07T01:58:06.407Z,10.31
2022-08-07T02:00:28.948Z,10.34
2022-08-07T02:03:18.041Z,10.35
2022-08-07T02:06:00.943Z,10.36
2022-08-07T02:08:37.376Z,10.36
2022-08-07T02:11:07.934Z,10.36
2022-08-07T02:13:57.824Z,10.36
2022-08-07T02:16:33.337Z,10.35
2022-08-07T02:20:04.157Z,10.34
2022-08-07T02:21:59.679Z,10.36
2022-08-07T02:24:29.292Z,10.34
2022-08-07T02:27:00.115Z,10.33
2022-08-07T02:29:29.081Z,10.33
2022-08-07T02:31:58.304Z,10.32
2022-08-07T02:34:28.328Z,10.33
2022-08-07T02:36:58.019Z,10.33
2022-08-07T02:39:42.386Z,10.38
2022-08-07T02:42:16.139Z,10.44
2022-08-07T02:44:48.137Z,10.47
2022-08-07T02:47:19.838Z,10.50
2022-08-07T02:49:58.519Z,10.51
2022-08-07T02:52:35.316Z,10.50
2022-08-07T02:55:27.663Z,10.49
2022-08-07T02:58:00.186Z,10.52
2022-08-07T03:00:30.373Z,10.50
2022-08-07T03:02:59.267Z,10.49
2022-08-07T03:05:29.193Z,10.50
2022-08-07T03:08:10.590Z,10.53
2022-08-07T03:10:46.452Z,10.57
2022-08-07T03:13:20.184Z,10.62
2022-08-07T03:15:58.506Z,10.67
2022-08-07T03:18:34.593Z,10.73
2022-08-07T03:21:08.837Z,10.79
2022-08-07T03:24:19.528Z,10.85
2022-08-07T03:26:32.118Z,10.91
2022-08-07T03:29:04.040Z,10.96
2022-08-07T03:31:43.300Z,11.04
2022-08-07T03:34:18.181Z,11.14
2022-08-07T03:36:48.048Z,11.22
2022-08-07T03:39:17.516Z,11.39
2022-08-07T03:42:06.028Z,11.47
2022-08-07T03:44:35.336Z,11.51
2022-08-07T03:47:14.155Z,11.51
2022-08-07T03:49:48.007Z,11.50
2022-08-07T03:52:27.522Z,11.45
2022-08-07T03:55:06.572Z,11.49
2022-08-07T03:58:34.396Z,11.60
2022-08-07T04:00:33.871Z,11.68
2022-08-07T04:03:04.995Z,11.73
2022-08-07T04:05:42.325Z,11.80
2022-08-07T04:08:18.810Z,11.91
2022-08-07T04:10:54.446Z,11.98
2022-08-07T04:14:10.927Z,12.05
2022-08-07T04:16:31.173Z,12.12
2022-08-07T04:19:12.570Z,12.14
2022-08-07T04:21:47.974Z,12.21
2022-08-07T04:24:33.754Z,12.23
2022-08-07T04:27:05.769Z,12.26
2022-08-07T04:29:58.483Z,12.28
2022-08-07T04:32:58.337Z,12.35
2022-08-07T04:35:35.061Z,12.38
2022-08-07T04:38:11.436Z,12.38
2022-08-07T04:40:52.955Z,12.42
2022-08-07T04:44:12.240Z,12.53
2022-08-07T04:46:34.772Z,12.88
2022-08-07T04:49:29.378Z,12.97
2022-08-07T04:52:51.153Z,12.98
2022-08-07T04:58:23.767Z,12.97
2022-08-07T05:01:45.673Z,13.30
2022-08-07T05:04:19.183Z,13.71
2022-08-07T05:07:30.557Z,14.23
2022-08-07T05:10:22.284Z,14.69
2022-08-07T05:13:10.087Z,15.19
2022-08-07T05:15:53.649Z,15.79
2022-08-07T05:18:29.616Z,16.02
2022-08-07T05:21:04.539Z,16.15
2022-08-07T05:23:58.446Z,16.33
2022-08-07T05:26:28.298Z,16.45
2022-08-07T05:29:05.025Z,16.60
2022-08-07T05:31:38.636Z,16.68
2022-08-07T05:34:15.849Z,16.88
2022-08-07T05:36:53.458Z,17.11
2022-08-07T05:40:18.016Z,17.26
2022-08-07T05:42:33.773Z,17.34
2022-08-07T05:45:26.088Z,17.45
2022-08-07T05:48:01.609Z,17.72
2022-08-07T05:50:34.284Z,17.96
2022-08-07T05:53:02.642Z,18.08
2022-08-07T05:56:03.273Z,18.16
2022-08-07T05:58:36.288Z,18.10
2022-08-07T06:01:10.663Z,18.09
2022-08-07T06:03:53.167Z,18.20
2022-08-07T06:06:29.691Z,18.32
2022-08-07T06:09:04.459Z,18.40
2022-08-07T06:11:34.674Z,18.49
2022-08-07T06:14:12.400Z,18.58
2022-08-07T06:16:50.597Z,18.76
2022-08-07T06:19:52.233Z,18.82
2022-08-07T06:22:23.455Z,19.00
2022-08-07T06:25:05.847Z,19.06
2022-08-07T06:27:59.868Z,18.98
2022-08-07T06:30:31.861Z,18.86
2022-08-07T06:33:15.639Z,18.90
2022-08-07T06:36:06.526Z,19.09
2022-08-07T06:38:34.978Z,19.03
2022-08-07T06:41:09.788Z,18.89
2022-08-07T06:43:46.186Z,18.90
2022-08-07T06:46:31.030Z,19.02
2022-08-07T06:49:03.939Z,19.23
2022-08-07T06:51:49.367Z,19.41
2022-08-07T06:55:31.345Z,19.28
2022-08-07T06:57:09.720Z,19.21
2022-08-07T07:00:13.312Z,19.26
2022-08-07T07:02:48.964Z,19.44
2022-08-07T07:06:04.322Z,19.59
2022-08-07T07:08:07.377Z,19.68
2022-08-07T07:10:47.519Z,19.72
2022-08-07T07:13:56.483Z,19.59
2022-08-07T07:16:30.026Z,19.65
2022-08-07T07:19:11.432Z,19.69
2022-08-07T07:22:04.812Z,19.68
2022-08-07T07:24:36.803Z,19.72
2022-08-07T07:27:06.166Z,19.70
2022-08-07T07:29:39.954Z,19.84
2022-08-07T07:32:24.560Z,19.80
2022-08-07T07:34:56.316Z,19.71
2022-08-07T07:37:49.653Z,19.76
2022-08-07T07:40:16.655Z,19.95
2022-08-07T07:42:51.265Z,19.97
2022-08-07T07:46:37.766Z,20.01
2022-08-07T07:48:24.042Z,20.06
2022-08-07T07:51:02.551Z,19.75
2022-08-07T07:53:51.450Z,19.74
2022-08-07T07:56:30.219Z,20.00
2022-08-07T07:59:02.552Z,20.35
2022-08-07T08:02:02.666Z,20.38
2022-08-07T08:04:20.354Z,20.38
2022-08-07T08:06:53.491Z,20.40
2022-08-07T08:09:23.673Z,20.45
2022-08-07T08:12:01.569Z,20.37
2022-08-07T08:14:36.471Z,20.05
2022-08-07T08:17:55.385Z,19.80
2022-08-07T08:20:19.750Z,19.92
2022-08-07T08:23:10.725Z,20.28
2022-08-07T08:26:03.377Z,20.39
2022-08-07T08:28:38.865Z,20.63
2022-08-07T08:31:16.452Z,20.78
2022-08-07T08:33:55.724Z,21.04
2022-08-07T08:36:29.584Z,21.33
2022-08-07T08:39:02.097Z,21.51
2022-08-07T08:41:59.001Z,21.62
2022-08-07T08:44:57.440Z,21.00
2022-08-07T08:47:52.533Z,20.69
2022-08-07T08:50:28.228Z,20.59
2022-08-07T08:53:06.769Z,20.78
2022-08-07T08:55:58.995Z,21.09
2022-08-07T08:58:57.987Z,21.23
2022-08-07T09:01:49.918Z,20.99
2022-08-07T09:04:37.535Z,20.70
2022-08-07T09:07:23.269Z,20.49
2022-08-07T09:10:13.983Z,20.25
2022-08-07T09:13:04.098Z,20.05
2022-08-07T09:16:25.298Z,20.25
2022-08-07T09:19:50.981Z,20.80
2022-08-07T09:22:37.118Z,20.86
2022-08-07T09:25:14.657Z,20.71
2022-08-07T09:30:01.528Z,20.58
2022-08-07T09:31:24.175Z,20.85
2022-08-07T09:34:28.445Z,21.16
2022-08-07T09:37:05.365Z,21.54
2022-08-07T09:39:58.030Z,21.74
2022-08-07T09:43:05.543Z,21.85
2022-08-07T09:47:50.138Z,21.77
2022-08-07T09:50:02.686Z,21.62
2022-08-07T09:52:34.515Z,21.31
2022-08-07T09:55:16.896Z,20.93
2022-08-07T09:58:10.267Z,20.73
2022-08-07T10:01:08.382Z,20.68
2022-08-07T10:04:05.433Z,20.84
2022-08-07T10:07:25.740Z,21.07
2022-08-07T10:10:21.890Z,21.66
2022-08-07T10:13:15.910Z,21.74
2022-08-07T10:16:19.251Z,21.57
2022-08-07T10:19:27.034Z,21.51
2022-08-07T10:22:33.526Z,21.41
2022-08-07T10:25:42.451Z,21.33
2022-08-07T10:28:26.036Z,21.29
2022-08-07T10:31:15.220Z,21.37
2022-08-07T10:34:06.143Z,21.57
2022-08-07T10:36:52.827Z,21.76
2022-08-07T10:40:03.216Z,21.65
2022-08-07T10:42:51.877Z,21.62
2022-08-07T10:45:44.847Z,21.68
2022-08-07T10:48:59.138Z,21.69
2022-08-07T10:52:12.861Z,21.83
2022-08-07T10:54:55.201Z,21.92
2022-08-07T10:57:56.184Z,21.88
2022-08-07T11:00:36.757Z,21.89
2022-08-07T11:03:37.419Z,21.85
2022-08-07T11:06:10.689Z,21.69
2022-08-07T11:10:09.400Z,21.70
2022-08-07T11:12:19.059Z,21.85
2022-08-07T11:15:17.320Z,21.82
2022-08-07T11:17:56.903Z,21.78
2022-08-07T11:21:15.779Z,21.82
2022-08-07T11:24:08.641Z,21.86
2022-08-07T11:26:56.058Z,22.04
2022-08-07T11:29:40.734Z,22.11
2022-08-07T11:32:25.903Z,22.22
2022-08-07T11:34:59.213Z,22.34
2022-08-07T11:38:12.862Z,22.44
2022-08-07T11:41:06.353Z,22.48
2022-08-07T11:44:18.686Z,22.42
2022-08-07T11:47:15.694Z,22.48
2022-08-07T11:50:30.503Z,22.44
2022-08-07T11:53:01.876Z,22.47
2022-08-07T11:56:27.344Z,22.58
2022-08-07T12:00:12.268Z,22.60
2022-08-07T12:02:34.027Z,22.54
2022-08-07T12:05:28.760Z,22.51
2022-08-07T12:08:31.359Z,22.62
2022-08-07T12:11:22.344Z,22.74
2022-08-07T12:14:13.667Z,22.74
2022-08-07T12:16:54.851Z,22.81
2022-08-07T12:19:35.520Z,22.83
2022-08-07T12:22:59.195Z,22.79
2022-08-07T12:26:21.614Z,22.70
2022-08-07T12:29:08.529Z,22.50
2022-08-07T12:32:12.374Z,22.47
2022-08-07T12:34:42.101Z,22.65
2022-08-07T12:37:23.437Z,22.68
2022-08-07T12:39:51.742Z,22.70
2022-08-07T12:42:27.643Z,22.84
2022-08-07T12:44:58.914Z,22.90
2022-08-07T12:48:04.618Z,23.18
2022-08-07T12:51:17.109Z,23.43
2022-08-07T12:54:37.791Z,23.56
2022-08-07T12:57:09.659Z,23.57
2022-08-07T12:59:53.954Z,23.45
2022-08-07T13:02:49.638Z,23.29
2022-08-07T13:06:02.950Z,23.19
2022-08-07T13:09:01.637Z,23.08
2022-08-07T13:12:02.995Z,22.95
2022-08-07T13:14:55.700Z,22.77
2022-08-07T13:17:40.046Z,21.39
2022-08-07T13:20:39.037Z,21.05
2022-08-07T13:24:03.747Z,20.74
2022-08-07T13:26:26.616Z,20.65
2022-08-07T13:29:01.944Z,20.64
2022-08-07T13:31:57.811Z,20.17
2022-08-07T13:35:08.518Z,20.26
2022-08-07T13:37:58.657Z,20.32
2022-08-07T13:40:35.354Z,20.56
2022-08-07T13:43:13.691Z,20.43
2022-08-07T13:46:12.001Z,20.29
2022-08-07T13:48:34.630Z,19.99
2022-08-07T13:51:02.740Z,20.10
2022-08-07T13:53:59.377Z,20.09
2022-08-07T13:56:35.517Z,20.54
2022-08-07T13:59:20.644Z,20.62
2022-08-07T14:02:12.972Z,20.79
2022-08-07T14:04:58.370Z,20.90
2022-08-07T14:07:31.947Z,21.07
2022-08-07T14:10:16.320Z,21.12
2022-08-07T14:12:54.218Z,21.02
2022-08-07T14:15:42.230Z,20.54
2022-08-07T14:18:28.911Z,19.92
2022-08-07T14:21:11.662Z,19.49
2022-08-07T14:24:00.493Z,19.44
2022-08-07T14:26:51.321Z,19.19
2022-08-07T14:30:05.061Z,19.26
2022-08-07T14:32:13.429Z,19.37
2022-08-07T14:34:46.064Z,19.58
2022-08-07T14:37:17.432Z,19.84
2022-08-07T14:40:17.799Z,19.69
2022-08-07T14:43:00.936Z,19.78
2022-08-07T14:45:26.369Z,19.27
2022-08-07T14:48:19.982Z,19.06
2022-08-07T14:50:50.791Z,18.92
2022-08-07T14:54:03.574Z,18.76
2022-08-07T14:59:13.958Z,18.56
2022-08-07T15:01:58.303Z,18.51
2022-08-07T15:04:26.279Z,18.55
2022-08-07T15:06:57.089Z,18.33
2022-08-07T15:09:59.695Z,18.34
2022-08-07T15:12:25.538Z,18.18
2022-08-07T15:20:55.042Z,18.14
2022-08-07T15:25:03.089Z,17.99
2022-08-07T15:26:21.223Z,17.85
2022-08-07T15:28:56.744Z,17.75
2022-08-07T15:32:00.978Z,17.73
2022-08-07T15:34:26.121Z,17.68
2022-08-07T15:37:04.029Z,17.77
2022-08-07T15:39:57.740Z,17.66
2022-08-07T15:42:52.345Z,17.70
2022-08-07T15:45:22.399Z,17.56
2022-08-07T15:53:51.658Z,17.81
2022-08-07T15:56:24.295Z,17.90
2022-08-07T15:58:53.839Z,17.87
2022-08-07T16:01:39.356Z,17.88
2022-08-07T16:04:15.128Z,18.04
2022-08-07T16:07:04.802Z,18.31
2022-08-07T16:09:54.030Z,18.44
2022-08-07T16:13:04.873Z,18.75
2022-08-07T16:16:06.469Z,18.45
2022-08-07T16:18:49.446Z,18.37
2022-08-07T16:22:03.214Z,18.07
2022-08-07T16:24:33.739Z,18.01
2022-08-07T16:27:18.179Z,17.70
2022-08-07T16:30:31.136Z,17.65
2022-08-07T16:34:01.374Z,17.68
2022-08-07T16:36:07.979Z,17.55
2022-08-07T16:39:06.169Z,17.57
2022-08-07T16:41:58.974Z,17.57
2022-08-07T16:45:15.577Z,17.35
2022-08-07T16:48:13.446Z,17.25
2022-08-07T16:51:22.650Z,17.28
2022-08-07T16:54:06.803Z,17.19
2022-08-07T16:58:01.013Z,17.25
2022-08-07T17:00:15.231Z,17.16
2022-08-07T17:03:04.979Z,17.00
2022-08-07T17:06:26.569Z,17.07
2022-08-07T17:09:14.318Z,17.12
2022-08-07T17:12:03.980Z,17.15
2022-08-07T17:14:55.992Z,17.13
2022-08-07T17:17:44.021Z,17.18
2022-08-07T17:20:31.469Z,17.12
2022-08-07T17:23:31.869Z,17.05
2022-08-07T17:26:31.284Z,16.99
2022-08-07T17:30:16.193Z,17.03
2022-08-07T17:32:30.453Z,17.02
2022-08-07T17:35:51.707Z,16.90
2022-08-07T17:38:32.201Z,16.93
2022-08-07T17:42:04.401Z,16.98
2022-08-07T17:44:33.548Z,16.94
2022-08-07T17:47:42.338Z,16.94
2022-08-07T17:50:30.238Z,16.91
2022-08-07T17:53:06.076Z,16.84
2022-08-07T17:56:00.527Z,16.82
2022-08-07T17:58:53.133Z,16.89
2022-08-07T18:01:36.801Z,16.84
2022-08-07T18:04:24.643Z,16.82
2022-08-07T18:07:22.606Z,16.91
2022-08-07T18:10:32.370Z,16.84
2022-08-07T18:12:59.993Z,16.80
2022-08-07T18:15:32.763Z,16.71
2022-08-07T18:18:47.270Z,16.72
2022-08-07T18:21:53.367Z,16.79
2022-08-07T18:24:45.604Z,16.62
2022-08-07T18:27:41.023Z,16.48
2022-08-07T18:30:31.156Z,16.28
2022-08-07T18:33:35.207Z,16.32
2022-08-07T18:36:33.378Z,16.41
2022-08-07T18:40:08.307Z,16.42
2022-08-07T18:42:12.961Z,16.35
2022-08-07T18:45:43.488Z,16.36
2022-08-07T18:48:00.516Z,16.40
2022-08-07T18:50:45.986Z,16.38
2022-08-07T18:53:40.108Z,16.36
2022-08-07T18:56:35.388Z,16.33
2022-08-07T18:59:59.515Z,16.24
2022-08-07T19:02:36.129Z,16.27
2022-08-07T19:05:16.087Z,16.20
2022-08-07T19:08:07.385Z,16.12
2022-08-07T19:10:52.246Z,16.07
2022-08-07T19:13:50.131Z,16.03
2022-08-07T19:17:00.646Z,16.00
2022-08-07T19:19:57.098Z,15.94
2022-08-07T19:22:36.209Z,15.87
2022-08-07T19:25:07.691Z,15.77
2022-08-07T19:28:29.453Z,15.71
2022-08-07T19:31:01.321Z,15.67
2022-08-07T19:33:33.243Z,15.64
2022-08-07T19:36:03.904Z,15.61
2022-08-07T19:38:33.849Z,15.58
2022-08-07T19:41:01.601Z,15.54
2022-08-07T19:43:50.096Z,15.46
2022-08-07T19:46:26.664Z,15.43
2022-08-07T19:49:06.995Z,15.40
2022-08-07T19:51:51.968Z,15.40
2022-08-07T19:54:32.247Z,15.40
2022-08-07T19:58:02.713Z,15.43
2022-08-07T20:00:03.919Z,15.45
2022-08-07T20:02:51.664Z,15.46
2022-08-07T20:05:27.825Z,15.48
2022-08-07T20:08:04.999Z,15.48
2022-08-07T20:10:52.058Z,15.48
2022-08-07T20:13:38.238Z,15.44
2022-08-07T20:16:32.025Z,15.39
2022-08-07T20:18:59.629Z,15.30
2022-08-07T20:21:41.713Z,15.18
2022-08-07T20:24:18.913Z,15.10
2022-08-07T20:26:52.160Z,15.05
2022-08-07T20:29:48.211Z,14.96
2022-08-07T20:32:25.552Z,14.88
2022-08-07T20:34:56.409Z,14.78
2022-08-07T20:37:25.941Z,14.70
2022-08-07T20:40:04.342Z,14.64
2022-08-07T20:42:34.457Z,14.56
2022-08-07T20:45:04.644Z,14.48
2022-08-07T20:47:57.250Z,14.42
2022-08-07T20:50:28.969Z,14.36
2022-08-07T20:52:58.370Z,14.31
2022-08-07T20:55:25.678Z,14.27
2022-08-07T20:58:04.189Z,14.22
2022-08-07T21:00:46.442Z,14.17
2022-08-07T21:03:16.925Z,14.09
2022-08-07T21:05:55.995Z,14.04
2022-08-07T21:08:37.569Z,13.98
2022-08-07T21:11:17.762Z,13.90
2022-08-07T21:14:29.780Z,13.82
2022-08-07T21:18:03.549Z,13.73
2022-08-07T21:20:04.741Z,13.69
2022-08-07T21:22:38.944Z,13.63
2022-08-07T21:25:17.944Z,13.54
2022-08-07T21:28:48.910Z,13.48
2022-08-07T21:31:49.398Z,13.47
2022-08-07T21:34:20.484Z,13.42
2022-08-07T21:37:00.806Z,13.36
2022-08-07T21:39:46.506Z,13.30
2022-08-07T21:42:46.613Z,13.28
2022-08-07T21:46:08.568Z,13.23
2022-08-07T21:48:43.747Z,13.21
2022-08-07T21:51:54.498Z,13.14
2022-08-07T21:54:45.945Z,13.09
2022-08-07T21:57:44.907Z,13.04
2022-08-07T22:00:25.603Z,13.04
2022-08-07T22:02:55.497Z,13.02
2022-08-07T22:05:46.218Z,12.99
2022-08-07T22:08:18.438Z,13.01
2022-08-07T22:10:49.781Z,13.08
2022-08-07T22:13:17.473Z,13.08
2022-08-07T22:16:40.096Z,13.03
2022-08-07T22:19:29.913Z,13.00
2022-08-07T22:22:17.965Z,13.02
2022-08-07T22:25:11.238Z,13.09
2022-08-07T22:28:07.351Z,13.16
2022-08-07T22:31:11.354Z,13.24
2022-08-07T22:33:56.204Z,13.26
2022-08-07T22:36:47.514Z,13.26
2022-08-07T22:39:52.781Z,13.22
2022-08-07T22:42:25.630Z,13.20
2022-08-07T22:44:58.958Z,13.14
2022-08-07T22:47:35.323Z,13.10
2022-08-07T22:50:20.896Z,13.06
2022-08-07T22:53:19.194Z,13.03
2022-08-07T22:56:08.649Z,13.03
2022-08-07T22:58:48.615Z,12.97
2022-08-07T23:01:42.052Z,12.94
2022-08-07T23:04:36.113Z,12.98
2022-08-07T23:08:00.433Z,12.99
2022-08-07T23:10:52.421Z,13.01
2022-08-07T23:13:48.691Z,13.01
2022-08-07T23:16:54.893Z,13.02
2022-08-07T23:20:08.967Z,13.05
2022-08-07T23:24:04.490Z,13.12
2022-08-07T23:26:26.272Z,13.13
2022-08-07T23:29:16.830Z,13.14
2022-08-07T23:34:21.202Z,13.15
2022-08-07T23:35:19.748Z,13.19
2022-08-07T23:38:36.892Z,13.21
2022-08-07T23:41:47.574Z,13.22
2022-08-07T23:44:53.833Z,13.26
2022-08-07T23:48:01.976Z,13.27
2022-08-07T23:50:45.622Z,13.28
2022-08-07T23:53:51.133Z,13.29
2022-08-07T23:56:57.134Z,13.32
